Time;durP1;ratioP1;P1;durP2;ratioP2;P2;SDS_P1;SDS_P2;PMS_P1;PMS_P2;Temp;Humidity;BMP_temperature;BMP_pressure;BME280_temperature;BME280_humidity;BME280_pressure;Samples;Min_cycle;Max_cycle;Signal;HPM_P1;HPM_P2
2023/01/23 00:01:26;;;;;;;10.55;6.22;;;4.60;99.90;;;;;;5032346;27;93162;-77
2023/01/23 00:03:54;;;;;;;11.77;5.88;;;4.60;99.90;;;;;;5016595;28;93172;-78
2023/01/23 00:06:21;;;;;;;11.35;6.32;;;4.60;99.90;;;;;;5015023;28;101545;-78
2023/01/23 00:08:49;;;;;;;9.88;6.72;;;4.50;99.90;;;;;;5016460;28;92365;-78
2023/01/23 00:11:22;;;;;;;9.40;6.75;;;4.50;99.90;;;;;;5016875;28;91882;-77
2023/01/23 00:13:50;;;;;;;11.73;7.37;;;4.50;99.90;;;;;;5014777;28;95139;-77
2023/01/23 00:16:20;;;;;;;9.98;6.65;;;4.50;99.90;;;;;;4998481;28;95471;-77
2023/01/23 00:18:48;;;;;;;10.75;7.05;;;4.40;99.90;;;;;;5014092;28;94720;-77
2023/01/23 00:21:21;;;;;;;10.32;7.40;;;4.40;99.90;;;;;;5016665;28;92409;-77
2023/01/23 00:23:51;;;;;;;11.65;6.95;;;4.50;99.90;;;;;;5014489;28;95803;-77
2023/01/23 00:26:25;;;;;;;14.18;7.40;;;4.40;99.90;;;;;;5014914;28;93032;-77
2023/01/23 00:28:53;;;;;;;15.20;7.90;;;4.50;99.90;;;;;;5015087;28;92732;-77
2023/01/23 00:31:23;;;;;;;11.23;8.63;;;4.40;99.90;;;;;;5014991;28;92613;-77
2023/01/23 00:33:57;;;;;;;13.45;7.60;;;4.50;99.90;;;;;;5014425;28;95951;-77
2023/01/23 00:36:27;;;;;;;11.85;7.47;;;4.50;99.90;;;;;;5016143;28;92884;-77
2023/01/23 00:38:55;;;;;;;11.93;7.22;;;4.50;99.90;;;;;;5014682;28;92541;-77
2023/01/23 00:41:22;;;;;;;9.80;7.30;;;4.50;99.90;;;;;;5015888;28;92472;-77
2023/01/23 00:43:50;;;;;;;10.82;7.45;;;4.50;99.90;;;;;;5012699;28;101543;-77
2023/01/23 00:46:18;;;;;;;13.57;7.95;;;4.50;99.90;;;;;;4998130;28;98500;-77
2023/01/23 00:48:48;;;;;;;12.85;7.35;;;4.50;99.90;;;;;;5014221;28;92379;-77
2023/01/23 00:51:15;;;;;;;12.50;6.93;;;4.40;99.90;;;;;;5014393;28;92567;-77
2023/01/23 00:53:44;;;;;;;11.75;7.00;;;4.40;99.90;;;;;;4997651;28;95917;-77
2023/01/23 00:56:11;;;;;;;16.65;8.43;;;4.40;99.90;;;;;;5014484;28;92697;-77
2023/01/23 00:58:41;;;;;;;13.38;7.40;;;4.40;99.90;;;;;;4998711;28;93248;-77
2023/01/23 01:01:12;;;;;;;13.32;8.10;;;4.50;99.90;;;;;;5048437;27;92021;-77
2023/01/23 01:03:41;;;;;;;12.43;7.57;;;4.50;99.90;;;;;;4997732;28;95476;-77
2023/01/23 01:06:08;;;;;;;13.57;7.78;;;4.60;99.90;;;;;;5014348;28;94233;-77
2023/01/23 01:08:35;;;;;;;13.32;6.78;;;4.60;99.90;;;;;;5014789;28;95609;-77
2023/01/23 01:11:03;;;;;;;14.15;8.40;;;4.60;99.90;;;;;;4997698;28;92437;-77
2023/01/23 01:13:30;;;;;;;9.88;7.20;;;4.60;99.90;;;;;;5014092;28;95657;-77
2023/01/23 01:16:00;;;;;;;11.23;6.40;;;4.60;99.90;;;;;;5013567;28;95547;-78
2023/01/23 01:18:28;;;;;;;13.88;6.55;;;4.60;99.90;;;;;;5047965;27;92456;-77
2023/01/23 01:20:56;;;;;;;10.13;7.30;;;4.60;99.90;;;;;;5015460;28;92436;-77
2023/01/23 01:23:23;;;;;;;12.82;7.00;;;4.50;99.90;;;;;;5015583;28;93290;-77
2023/01/23 01:25:50;;;;;;;9.30;6.80;;;4.60;99.90;;;;;;5014094;28;95369;-77
2023/01/23 01:28:18;;;;;;;9.95;7.03;;;4.60;99.90;;;;;;5013965;28;92512;-78
2023/01/23 01:30:46;;;;;;;12.13;6.68;;;4.60;99.90;;;;;;5015416;28;92504;-77
2023/01/23 01:33:13;;;;;;;13.23;8.05;;;4.60;99.90;;;;;;5012149;28;97991;-77
2023/01/23 01:35:41;;;;;;;15.27;7.97;;;4.60;99.90;;;;;;4997040;28;98427;-76
2023/01/23 01:38:08;;;;;;;10.85;6.60;;;4.60;99.90;;;;;;5015088;28;92467;-77
2023/01/23 01:40:36;;;;;;;15.77;8.55;;;4.60;99.90;;;;;;5000073;28;92494;-77
2023/01/23 01:43:19;;;;;;;13.48;7.80;;;4.60;99.90;;;;;;5016709;28;95680;-77
2023/01/23 01:46:07;;;;;;;12.07;6.57;;;4.70;99.90;;;;;;5018825;28;92668;-76
2023/01/23 01:48:40;;;;;;;10.70;7.05;;;4.70;99.90;;;;;;5017483;28;92431;-76
2023/01/23 01:51:30;;;;;;;13.52;7.35;;;4.60;99.90;;;;;;5017387;28;91748;-77
2023/01/23 01:54:23;;;;;;;11.75;7.68;;;4.70;99.90;;;;;;5018150;28;93192;-77
2023/01/23 01:57:15;;;;;;;9.55;7.28;;;4.70;99.90;;;;;;5017398;28;92993;-76
2023/01/23 01:59:47;;;;;;;12.23;7.05;;;4.70;99.90;;;;;;5015917;28;94897;-76
2023/01/23 02:02:30;;;;;;;11.18;6.85;;;4.60;99.90;;;;;;5017061;28;93835;-76
2023/01/23 02:05:03;;;;;;;13.07;6.90;;;4.70;99.90;;;;;;5016548;28;95881;-76
2023/01/23 02:07:41;;;;;;;10.35;6.65;;;4.60;99.90;;;;;;5000168;28;95618;-77
2023/01/23 02:10:09;;;;;;;7.82;6.45;;;4.60;99.90;;;;;;5000223;28;92545;-77
2023/01/23 02:12:46;;;;;;;8.83;6.77;;;4.60;99.90;;;;;;5001622;28;92508;-77
2023/01/23 02:15:13;;;;;;;11.25;7.30;;;4.60;99.90;;;;;;5016558;28;95918;-77
2023/01/23 02:17:42;;;;;;;13.13;7.05;;;4.60;99.90;;;;;;5016988;28;95620;-77
2023/01/23 02:20:15;;;;;;;9.35;7.18;;;4.60;99.90;;;;;;5016615;28;92499;-76
2023/01/23 02:22:52;;;;;;;12.90;7.40;;;4.60;99.90;;;;;;5016834;28;92513;-78
2023/01/23 02:25:31;;;;;;;12.35;7.50;;;4.60;99.90;;;;;;5015275;28;98156;-77
2023/01/23 02:28:00;;;;;;;12.82;7.60;;;4.60;99.90;;;;;;5016285;28;97796;-77
2023/01/23 02:30:29;;;;;;;9.55;6.95;;;4.60;99.90;;;;;;5016955;28;93293;-77
2023/01/23 02:33:25;;;;;;;12.18;7.05;;;4.60;99.90;;;;;;5000085;28;92621;-77
2023/01/23 02:35:53;;;;;;;10.55;7.00;;;4.60;99.90;;;;;;4999632;28;96295;-77
2023/01/23 02:38:25;;;;;;;13.10;7.70;;;4.50;99.90;;;;;;5016386;28;95035;-77
2023/01/23 02:40:56;;;;;;;12.47;8.30;;;4.60;99.90;;;;;;4999784;28;92805;-77
2023/01/23 02:43:34;;;;;;;12.82;7.57;;;4.60;99.90;;;;;;5017014;28;92186;-77
2023/01/23 02:46:06;;;;;;;10.95;8.63;;;4.60;99.90;;;;;;5016058;28;95851;-77
2023/01/23 02:48:35;;;;;;;12.63;7.80;;;4.60;99.90;;;;;;5016317;28;95431;-76
2023/01/23 02:51:02;;;;;;;12.77;7.65;;;4.60;99.90;;;;;;5014862;28;94979;-77
2023/01/23 02:53:30;;;;;;;10.45;7.88;;;4.60;99.90;;;;;;4983221;28;92521;-76
2023/01/23 02:55:59;;;;;;;15.63;8.25;;;4.60;99.90;;;;;;5016352;28;93324;-77
2023/01/23 03:01:12;;;;;;;11.68;7.80;;;4.60;99.90;;;;;;5002171;28;92427;-76
2023/01/23 03:03:42;;;;;;;10.73;7.70;;;4.60;99.90;;;;;;4999828;28;92672;-76
2023/01/23 03:06:10;;;;;;;12.07;8.02;;;4.60;99.90;;;;;;5017220;28;92707;-77
2023/01/23 03:08:46;;;;;;;12.57;8.35;;;4.60;99.90;;;;;;5017997;28;93058;-77
2023/01/23 03:11:17;;;;;;;9.75;7.55;;;4.60;99.90;;;;;;5016174;28;93036;-77
2023/01/23 03:13:46;;;;;;;11.80;8.18;;;4.60;99.90;;;;;;5049964;27;93256;-77
2023/01/23 03:16:14;;;;;;;9.05;7.45;;;4.60;99.90;;;;;;4997965;28;97600;-77
2023/01/23 03:18:41;;;;;;;12.70;8.13;;;4.60;99.90;;;;;;5049429;27;97885;-77
2023/01/23 03:21:20;;;;;;;10.27;7.40;;;4.60;99.90;;;;;;5016411;28;93039;-77
2023/01/23 03:23:47;;;;;;;11.45;7.28;;;4.60;99.90;;;;;;4999465;28;92558;-77
2023/01/23 03:26:14;;;;;;;13.35;8.45;;;4.60;99.90;;;;;;5016996;28;93083;-76
2023/01/23 03:31:27;;;;;;;12.48;7.68;;;4.60;99.90;;;;;;5049491;27;92478;-77
2023/01/23 03:33:54;;;;;;;15.23;7.80;;;4.60;99.90;;;;;;5016242;28;91766;-77
2023/01/23 03:36:22;;;;;;;11.25;7.55;;;4.60;99.90;;;;;;5015382;28;95593;-77
2023/01/23 03:41:37;;;;;;;12.43;7.88;;;4.60;99.90;;;;;;5048154;27;94942;-77
2023/01/23 03:44:05;;;;;;;13.93;8.02;;;4.60;99.90;;;;;;4999721;28;92436;-76
2023/01/23 03:46:32;;;;;;;12.68;7.45;;;4.70;99.90;;;;;;5015186;28;95507;-76
2023/01/23 03:48:59;;;;;;;13.88;8.32;;;4.60;99.90;;;;;;5015637;28;92841;-77
2023/01/23 03:51:27;;;;;;;12.88;8.30;;;4.60;99.90;;;;;;4998811;28;92507;-77
2023/01/23 03:53:54;;;;;;;12.25;8.38;;;4.60;99.90;;;;;;5015219;28;92473;-77
2023/01/23 03:56:21;;;;;;;12.55;8.73;;;4.60;99.90;;;;;;5015063;28;96017;-76
2023/01/23 03:58:48;;;;;;;14.15;8.80;;;4.60;99.90;;;;;;4999009;28;95465;-77
2023/01/23 04:01:17;;;;;;;10.57;7.97;;;4.60;99.90;;;;;;5014917;28;92476;-77
2023/01/23 04:03:45;;;;;;;14.65;8.90;;;4.60;99.90;;;;;;4998261;28;92497;-78
2023/01/23 04:06:12;;;;;;;12.40;9.00;;;4.60;99.90;;;;;;4980663;28;98454;-77
2023/01/23 04:08:39;;;;;;;14.35;8.30;;;4.60;99.90;;;;;;5014813;28;97640;-77
2023/01/23 04:11:08;;;;;;;13.50;8.15;;;4.60;99.90;;;;;;5015563;28;92498;-77
2023/01/23 04:13:35;;;;;;;13.10;8.18;;;4.60;99.90;;;;;;5014695;28;92519;-77
2023/01/23 04:16:03;;;;;;;13.50;8.90;;;4.60;99.90;;;;;;5014965;28;95353;-77
2023/01/23 04:18:30;;;;;;;12.70;8.85;;;4.60;99.90;;;;;;4998528;28;95233;-77
2023/01/23 04:20:58;;;;;;;13.82;9.02;;;4.60;99.90;;;;;;5015206;28;92487;-77
2023/01/23 04:23:25;;;;;;;12.73;8.63;;;4.60;99.90;;;;;;5015263;28;91717;-77
2023/01/23 04:25:53;;;;;;;13.02;8.27;;;4.60;99.90;;;;;;5014721;28;95310;-77
2023/01/23 04:28:21;;;;;;;11.75;7.72;;;4.60;99.90;;;;;;4998304;28;95835;-77
2023/01/23 04:30:50;;;;;;;12.88;8.73;;;4.60;99.90;;;;;;4997128;28;94968;-77
2023/01/23 04:33:24;;;;;;;10.02;7.93;;;4.50;99.90;;;;;;5014525;28;92396;-76
2023/01/23 04:36:00;;;;;;;14.52;8.55;;;4.60;99.90;;;;;;5014497;28;96035;-77
2023/01/23 04:38:29;;;;;;;12.63;7.43;;;4.60;99.90;;;;;;5014524;28;95594;-77
2023/01/23 04:41:06;;;;;;;13.07;8.15;;;4.60;99.90;;;;;;5048150;27;92524;-77
2023/01/23 04:43:36;;;;;;;13.15;8.77;;;4.60;99.90;;;;;;5014502;28;93444;-77
2023/01/23 04:46:07;;;;;;;13.68;8.68;;;4.60;99.90;;;;;;5014396;28;95196;-77
2023/01/23 04:48:54;;;;;;;14.00;8.70;;;4.60;99.90;;;;;;5014554;28;92798;-77
2023/01/23 04:51:22;;;;;;;14.30;8.65;;;4.60;99.90;;;;;;5014215;28;92423;-77
2023/01/23 04:53:49;;;;;;;13.07;8.45;;;4.60;99.90;;;;;;5014341;28;92500;-77
2023/01/23 04:56:16;;;;;;;12.25;7.57;;;4.60;99.90;;;;;;4996486;28;98394;-77
2023/01/23 04:58:44;;;;;;;10.90;7.50;;;4.60;99.90;;;;;;5013925;28;97971;-77
2023/01/23 05:01:21;;;;;;;8.98;8.02;;;4.60;99.90;;;;;;5014691;28;93060;-77
2023/01/23 05:03:52;;;;;;;13.40;7.55;;;4.60;99.90;;;;;;5014665;28;93055;-77
2023/01/23 05:06:19;;;;;;;13.88;8.15;;;4.60;99.90;;;;;;5014156;28;95696;-77
2023/01/23 05:08:46;;;;;;;11.50;8.20;;;4.60;99.90;;;;;;5014102;28;95818;-78
2023/01/23 05:11:32;;;;;;;12.90;8.15;;;4.60;99.90;;;;;;5014181;28;92435;-77
2023/01/23 05:13:59;;;;;;;14.10;7.82;;;4.60;99.90;;;;;;5013338;28;91803;-77
2023/01/23 05:16:28;;;;;;;13.95;8.10;;;4.60;99.90;;;;;;5013714;28;95826;-78
2023/01/23 05:19:21;;;;;;;9.63;7.35;;;4.60;99.90;;;;;;4990587;28;93145;-78
2023/01/23 05:21:49;;;;;;;12.70;7.93;;;4.60;99.90;;;;;;5012985;28;94850;-77
2023/01/23 05:24:19;;;;;;;11.55;7.68;;;4.60;99.90;;;;;;4998262;28;92527;-77
2023/01/23 05:26:47;;;;;;;11.77;7.93;;;4.60;99.90;;;;;;5047578;27;95734;-78
2023/01/23 05:29:15;;;;;;;12.40;7.55;;;4.50;99.90;;;;;;4997494;28;95712;-77
2023/01/23 05:32:14;;;;;;;15.50;7.32;;;4.60;99.90;;;;;;5010590;28;92706;-77
2023/01/23 05:34:41;;;;;;;11.85;7.80;;;4.50;99.90;;;;;;5015085;28;92483;-77
2023/01/23 05:37:17;;;;;;;13.38;8.20;;;4.50;99.90;;;;;;5013774;28;96006;-77
2023/01/23 05:39:48;;;;;;;12.23;8.27;;;4.40;99.90;;;;;;4997957;28;95388;-77
2023/01/23 05:42:15;;;;;;;14.52;8.82;;;4.40;99.90;;;;;;5014115;28;92605;-77
2023/01/23 05:45:01;;;;;;;11.88;7.70;;;4.40;99.90;;;;;;5012045;28;92489;-77
2023/01/23 05:47:35;;;;;;;11.88;8.60;;;4.40;99.90;;;;;;4996418;28;98028;-77
2023/01/23 05:50:04;;;;;;;11.02;8.32;;;4.40;99.90;;;;;;4997009;28;97854;-77
2023/01/23 05:52:34;;;;;;;13.27;8.05;;;4.40;99.90;;;;;;4997509;28;92452;-77
2023/01/23 05:55:01;;;;;;;11.73;8.18;;;4.40;99.90;;;;;;5013239;28;94349;-77
2023/01/23 05:57:28;;;;;;;11.13;7.97;;;4.40;99.90;;;;;;5013777;28;93035;-77
2023/01/23 06:00:27;;;;;;;12.07;8.15;;;4.40;99.90;;;;;;4980144;28;93041;-77
2023/01/23 06:03:14;;;;;;;15.10;8.45;;;4.40;99.90;;;;;;5013468;28;92481;-77
2023/01/23 06:06:01;;;;;;;15.45;7.88;;;4.40;99.90;;;;;;5013910;28;91800;-77
2023/01/23 06:08:28;;;;;;;9.13;7.28;;;4.40;99.90;;;;;;4996649;28;96057;-77
2023/01/23 06:10:57;;;;;;;13.23;8.52;;;4.40;99.90;;;;;;4996807;28;95526;-78
2023/01/23 06:13:28;;;;;;;18.58;10.13;;;4.40;99.90;;;;;;5012475;28;94957;-77
2023/01/23 06:15:56;;;;;;;14.75;8.80;;;4.50;99.90;;;;;;5012352;28;92555;-77
2023/01/23 06:18:24;;;;;;;10.60;8.25;;;4.50;99.90;;;;;;5013306;28;95969;-77
2023/01/23 06:21:00;;;;;;;12.13;8.32;;;4.50;99.90;;;;;;5013083;28;95388;-77
2023/01/23 06:23:28;;;;;;;11.30;8.10;;;4.50;99.90;;;;;;5013651;28;93027;-77
2023/01/23 06:26:00;;;;;;;12.90;8.73;;;4.50;99.90;;;;;;5015497;28;92762;-77
2023/01/23 06:28:28;;;;;;;16.25;8.68;;;4.50;99.90;;;;;;5016527;28;96700;-77
2023/01/23 06:31:00;;;;;;;9.55;8.20;;;4.40;99.90;;;;;;5000421;28;96157;-77
2023/01/23 06:33:36;;;;;;;14.43;9.55;;;4.50;99.90;;;;;;5016540;28;92517;-77
2023/01/23 06:36:08;;;;;;;11.63;8.73;;;4.50;99.90;;;;;;5016562;28;92493;-77
2023/01/23 06:38:36;;;;;;;13.30;7.53;;;4.50;99.90;;;;;;5014868;28;98105;-77
2023/01/23 06:41:08;;;;;;;10.10;7.88;;;4.50;99.90;;;;;;5015830;28;98940;-77
2023/01/23 06:43:37;;;;;;;12.88;8.20;;;4.50;99.90;;;;;;5000271;28;92476;-77
2023/01/23 06:46:10;;;;;;;13.13;9.48;;;4.50;99.90;;;;;;5016572;28;92504;-77
2023/01/23 06:48:37;;;;;;;8.98;7.47;;;4.50;99.90;;;;;;4999744;28;95581;-77
2023/01/23 06:51:05;;;;;;;8.63;7.40;;;4.60;99.90;;;;;;5016141;28;95433;-77
2023/01/23 06:53:32;;;;;;;12.02;8.43;;;4.50;99.90;;;;;;5016412;28;92475;-77
2023/01/23 06:56:05;;;;;;;13.23;8.63;;;4.50;99.90;;;;;;5000018;28;91749;-78
2023/01/23 06:58:37;;;;;;;12.65;8.77;;;4.60;99.90;;;;;;5015974;28;96170;-76
2023/01/23 07:01:11;;;;;;;12.60;8.35;;;4.50;99.90;;;;;;5015963;28;94075;-76
2023/01/23 07:03:58;;;;;;;12.88;8.43;;;4.60;99.90;;;;;;5016002;27;94933;-77
2023/01/23 07:06:25;;;;;;;11.50;7.70;;;4.50;99.90;;;;;;4999538;28;92625;-76
2023/01/23 07:08:52;;;;;;;7.85;7.00;;;4.50;99.90;;;;;;5015704;28;95994;-76
2023/01/23 07:11:19;;;;;;;12.02;7.60;;;4.50;99.90;;;;;;4999456;28;95665;-76
2023/01/23 07:13:46;;;;;;;11.65;6.88;;;4.50;99.90;;;;;;5015553;28;92544;-76
2023/01/23 07:16:14;;;;;;;9.65;7.30;;;4.50;99.90;;;;;;4999263;28;92447;-76
2023/01/23 07:18:42;;;;;;;8.40;7.00;;;4.50;99.90;;;;;;4999024;28;95204;-76
2023/01/23 07:21:09;;;;;;;10.90;7.72;;;4.50;99.90;;;;;;5016085;28;95191;-76
2023/01/23 07:23:37;;;;;;;10.95;7.63;;;4.50;99.90;;;;;;5015876;28;92624;-77
2023/01/23 07:26:08;;;;;;;11.98;8.20;;;4.50;99.90;;;;;;5016080;28;92512;-76
2023/01/23 07:28:38;;;;;;;10.15;7.32;;;4.50;99.90;;;;;;5015631;28;95733;-77
2023/01/23 07:31:06;;;;;;;10.40;7.22;;;4.50;99.90;;;;;;5016860;28;96345;-76
2023/01/23 07:33:33;;;;;;;10.55;7.72;;;4.50;99.90;;;;;;5017108;28;92369;-77
2023/01/23 07:36:00;;;;;;;9.50;7.35;;;4.50;99.90;;;;;;5015543;28;93207;-76
2023/01/23 07:38:27;;;;;;;11.20;7.90;;;4.60;99.90;;;;;;5016060;28;93320;-77
2023/01/23 07:40:57;;;;;;;10.13;7.22;;;4.60;99.90;;;;;;5016089;28;92864;-76
2023/01/23 07:43:25;;;;;;;10.48;6.97;;;4.60;99.90;;;;;;5015494;28;92434;-77
2023/01/23 07:45:53;;;;;;;9.43;7.45;;;4.60;99.90;;;;;;5015592;28;92429;-77
2023/01/23 07:48:20;;;;;;;12.57;7.00;;;4.60;99.90;;;;;;5016702;28;93082;-77
2023/01/23 07:50:47;;;;;;;8.65;6.43;;;4.60;99.90;;;;;;5014932;28;94488;-77
2023/01/23 07:53:14;;;;;;;12.80;7.82;;;4.60;99.90;;;;;;5014557;28;94815;-77
2023/01/23 07:55:41;;;;;;;12.45;7.30;;;4.60;99.90;;;;;;4999053;28;92916;-77
2023/01/23 07:58:08;;;;;;;9.70;6.90;;;4.60;99.90;;;;;;5015000;28;96446;-77
2023/01/23 08:00:35;;;;;;;11.10;7.68;;;4.60;99.90;;;;;;5015517;28;92541;-77
2023/01/23 08:03:02;;;;;;;10.63;7.65;;;4.60;99.90;;;;;;5015341;28;92539;-77
2023/01/23 08:05:29;;;;;;;10.73;7.70;;;4.60;99.90;;;;;;5016596;28;92948;-78
2023/01/23 08:07:56;;;;;;;8.73;7.05;;;4.60;99.90;;;;;;5014801;28;96022;-78
2023/01/23 08:10:38;;;;;;;8.38;6.57;;;4.70;99.90;;;;;;5015457;28;95716;-77
2023/01/23 08:13:05;;;;;;;7.80;6.82;;;4.70;99.90;;;;;;4998059;28;96067;-78
2023/01/23 08:15:32;;;;;;;9.38;7.05;;;4.70;99.90;;;;;;5015108;28;93016;-78
2023/01/23 08:17:59;;;;;;;9.45;6.65;;;4.70;99.90;;;;;;5013283;28;98156;-77
2023/01/23 08:20:26;;;;;;;10.38;6.90;;;4.70;99.90;;;;;;5016187;28;95368;-78
2023/01/23 08:22:53;;;;;;;10.20;7.22;;;4.70;99.90;;;;;;5016145;28;92385;-77
2023/01/23 08:25:20;;;;;;;11.23;6.78;;;4.70;99.90;;;;;;5015156;28;92982;-77
2023/01/23 08:27:47;;;;;;;8.90;7.05;;;4.70;99.90;;;;;;5016117;28;93237;-77
2023/01/23 08:30:14;;;;;;;10.55;6.57;;;4.80;99.90;;;;;;5016111;28;92433;-77
2023/01/23 08:32:41;;;;;;;8.93;7.03;;;4.80;99.90;;;;;;5014903;28;92855;-77
2023/01/23 08:35:09;;;;;;;8.52;6.35;;;4.80;99.90;;;;;;5015041;28;92383;-77
2023/01/23 08:37:36;;;;;;;9.23;6.53;;;4.80;99.90;;;;;;5015965;28;93329;-78
2023/01/23 08:40:04;;;;;;;9.63;6.88;;;4.80;99.90;;;;;;5013671;28;95350;-77
2023/01/23 08:42:31;;;;;;;10.35;7.25;;;4.90;99.90;;;;;;4997048;28;95006;-77
2023/01/23 08:44:58;;;;;;;12.50;7.47;;;4.90;99.90;;;;;;5048099;27;92674;-77
2023/01/23 08:47:26;;;;;;;10.98;7.38;;;4.90;99.90;;;;;;5015586;28;98464;-77
2023/01/23 08:49:53;;;;;;;9.85;7.22;;;5.00;99.90;;;;;;5014047;28;92931;-77
2023/01/23 08:52:20;;;;;;;7.93;6.75;;;5.00;99.90;;;;;;5015850;28;92448;-77
2023/01/23 08:54:46;;;;;;;9.57;6.90;;;5.10;99.90;;;;;;5014767;28;92485;-77
2023/01/23 08:57:14;;;;;;;8.32;6.13;;;5.10;99.90;;;;;;5014356;28;93418;-77
2023/01/23 08:59:43;;;;;;;8.00;6.03;;;5.10;99.90;;;;;;5016295;28;92918;-77
2023/01/23 09:02:11;;;;;;;8.63;6.57;;;5.20;99.90;;;;;;4998163;28;92540;-77
2023/01/23 09:04:38;;;;;;;9.27;6.97;;;5.20;99.90;;;;;;5015468;28;92424;-77
2023/01/23 09:07:05;;;;;;;9.48;6.30;;;5.20;99.90;;;;;;5014138;28;95930;-77
2023/01/23 09:09:33;;;;;;;8.98;6.95;;;5.30;99.90;;;;;;4997556;28;97595;-77
2023/01/23 09:11:59;;;;;;;8.32;6.57;;;5.30;99.90;;;;;;5014328;28;92901;-77
2023/01/23 09:14:26;;;;;;;9.70;6.40;;;5.40;99.90;;;;;;5015845;28;92554;-77
2023/01/23 09:16:53;;;;;;;11.15;7.43;;;5.50;99.90;;;;;;4980342;28;106204;-77
2023/01/23 09:19:21;;;;;;;9.85;6.40;;;5.50;99.90;;;;;;5019422;27;92969;-77
2023/01/23 09:21:48;;;;;;;8.50;5.90;;;5.50;99.90;;;;;;5034730;28;92585;-78
2023/01/23 09:24:15;;;;;;;8.25;5.97;;;5.50;99.90;;;;;;5051385;27;91735;-78
2023/01/23 09:26:42;;;;;;;10.35;7.22;;;5.60;99.90;;;;;;5035557;28;93367;-77
2023/01/23 09:29:09;;;;;;;7.30;6.15;;;5.60;99.90;;;;;;5067711;27;95645;-78
2023/01/23 09:31:36;;;;;;;7.03;6.30;;;5.60;99.90;;;;;;5034114;28;94792;-78
2023/01/23 09:34:04;;;;;;;9.40;6.97;;;5.60;99.90;;;;;;5035294;28;92498;-78
2023/01/23 09:36:31;;;;;;;7.88;6.70;;;5.60;99.90;;;;;;5067925;27;93393;-77
2023/01/23 09:39:09;;;;;;;10.13;6.43;;;5.70;99.90;;;;;;5035240;28;92972;-78
2023/01/23 09:41:38;;;;;;;7.82;5.93;;;5.70;99.90;;;;;;5050640;27;92521;-77
2023/01/23 09:44:26;;;;;;;8.27;5.88;;;5.70;99.90;;;;;;5033876;28;92911;-77
2023/01/23 09:47:01;;;;;;;9.98;6.15;;;5.80;99.90;;;;;;5034038;28;95862;-77
2023/01/23 09:49:42;;;;;;;8.27;6.20;;;5.80;99.90;;;;;;5068025;27;93234;-77
2023/01/23 09:52:18;;;;;;;9.07;6.13;;;5.80;99.90;;;;;;5068025;27;92467;-77
2023/01/23 09:54:48;;;;;;;8.40;6.18;;;5.80;99.90;;;;;;5050557;27;92630;-78
2023/01/23 09:57:17;;;;;;;9.65;6.95;;;5.80;99.90;;;;;;5033440;28;95786;-78
2023/01/23 09:59:55;;;;;;;8.98;6.72;;;5.90;99.90;;;;;;5034902;28;95601;-77
2023/01/23 10:02:27;;;;;;;9.65;7.00;;;5.80;99.90;;;;;;5071458;27;92534;-77
2023/01/23 10:04:57;;;;;;;7.50;6.22;;;5.80;99.90;;;;;;5071004;27;92511;-77
2023/01/23 10:07:42;;;;;;;7.45;6.53;;;5.80;99.90;;;;;;5070827;27;94170;-77
2023/01/23 10:10:50;;;;;;;14.30;9.25;;;5.90;99.90;;;;;;5038527;28;93307;-77
2023/01/23 10:13:32;;;;;;;10.68;7.40;;;5.90;99.90;;;;;;5014816;28;92507;-77
2023/01/23 10:16:14;;;;;;;8.77;6.80;;;5.90;99.90;;;;;;5038957;28;92152;-77
2023/01/23 10:19:06;;;;;;;11.02;6.80;;;5.90;99.90;;;;;;5038471;28;93144;-77
2023/01/23 10:21:50;;;;;;;8.00;6.25;;;5.90;99.90;;;;;;5053489;27;94831;-78
2023/01/23 10:24:30;;;;;;;10.18;7.10;;;5.90;99.90;;;;;;5052811;27;95296;-77
2023/01/23 10:27:19;;;;;;;7.95;7.05;;;5.90;99.90;;;;;;5038441;28;92350;-77
2023/01/23 10:29:51;;;;;;;8.23;6.65;;;6.00;99.90;;;;;;5038412;28;93065;-77
2023/01/23 10:32:23;;;;;;;9.18;6.47;;;5.90;99.90;;;;;;5070536;27;93035;-77
2023/01/23 10:35:06;;;;;;;10.63;6.68;;;5.90;99.90;;;;;;5070947;27;92547;-77
2023/01/23 10:37:42;;;;;;;10.10;7.90;;;5.90;99.90;;;;;;5053563;27;92582;-78
2023/01/23 10:41:12;;;;;;;7.82;6.70;;;6.00;99.90;;;;;;5069585;27;93188;-76
2023/01/23 10:43:16;;;;;;;9.52;8.15;;;6.00;99.90;;;;;;5037757;28;92992;-77
2023/01/23 10:45:45;;;;;;;8.75;6.85;;;6.10;99.90;;;;;;5070766;27;92366;-78
2023/01/23 10:48:27;;;;;;;10.43;8.00;;;6.10;99.90;;;;;;5037637;28;92413;-78
2023/01/23 10:50:55;;;;;;;10.10;8.15;;;6.20;99.90;;;;;;5036358;28;95762;-78
2023/01/23 10:53:23;;;;;;;11.70;8.75;;;6.30;99.90;;;;;;5019621;28;94358;-77
2023/01/23 10:55:54;;;;;;;14.40;8.63;;;6.30;99.90;;;;;;5037766;28;92481;-77
2023/01/23 10:58:48;;;;;;;10.35;8.00;;;6.30;99.90;;;;;;5037795;28;92469;-77
2023/01/23 11:01:27;;;;;;;8.87;7.63;;;6.30;99.90;;;;;;5033416;28;93598;-77
2023/01/23 11:03:54;;;;;;;9.73;7.50;;;6.30;99.90;;;;;;5036051;28;94243;-77
2023/01/23 11:06:24;;;;;;;10.52;8.23;;;6.30;99.90;;;;;;5036177;28;92908;-77
2023/01/23 11:08:59;;;;;;;11.02;8.15;;;6.30;99.90;;;;;;5070870;27;91780;-77
2023/01/23 11:11:31;;;;;;;11.43;8.15;;;6.40;99.90;;;;;;5037365;27;93296;-77
2023/01/23 11:14:12;;;;;;;8.35;7.43;;;6.40;99.90;;;;;;5052884;27;95712;-76
2023/01/23 11:16:39;;;;;;;11.15;8.52;;;6.30;99.90;;;;;;5036433;28;94853;-77
2023/01/23 11:19:06;;;;;;;10.88;7.60;;;6.20;99.90;;;;;;5037560;28;92459;-77
2023/01/23 11:22:00;;;;;;;10.60;8.57;;;6.30;99.90;;;;;;5036987;28;93310;-77
2023/01/23 11:24:31;;;;;;;11.07;8.63;;;6.30;99.90;;;;;;5036970;28;93013;-77
2023/01/23 11:27:13;;;;;;;9.88;7.80;;;6.30;99.90;;;;;;5037437;28;92887;-78
2023/01/23 11:30:15;;;;;;;11.67;8.47;;;6.20;99.90;;;;;;5037561;28;92397;-77
2023/01/23 11:32:55;;;;;;;10.15;8.50;;;6.30;99.90;;;;;;5010577;28;95760;-77
2023/01/23 11:35:38;;;;;;;13.48;9.23;;;6.30;99.90;;;;;;5052684;27;95549;-78
2023/01/23 11:38:08;;;;;;;11.57;8.10;;;6.30;99.90;;;;;;5037417;28;92366;-77
2023/01/23 11:40:35;;;;;;;14.70;8.95;;;6.20;99.90;;;;;;5068793;27;92533;-78
2023/01/23 11:43:02;;;;;;;11.70;9.60;;;6.20;99.90;;;;;;5035651;28;95666;-77
2023/01/23 11:45:55;;;;;;;12.88;9.68;;;6.30;99.90;;;;;;5036553;28;95344;-77
2023/01/23 11:48:28;;;;;;;13.20;9.70;;;6.30;99.90;;;;;;5029374;28;92732;-77
2023/01/23 11:51:18;;;;;;;11.57;9.65;;;6.30;99.90;;;;;;5037132;28;92470;-77
2023/01/23 11:54:27;;;;;;;12.75;9.38;;;6.40;99.90;;;;;;5036869;28;93411;-78
2023/01/23 11:57:33;;;;;;;12.13;9.93;;;6.30;99.90;;;;;;5002172;28;92985;-77
2023/01/23 12:00:06;;;;;;;13.55;9.30;;;6.30;99.90;;;;;;4994517;28;92632;-77
2023/01/23 12:02:45;;;;;;;13.40;10.50;;;6.30;99.90;;;;;;5031369;28;91736;-77
2023/01/23 12:05:23;;;;;;;12.02;9.15;;;6.30;99.90;;;;;;5034888;28;93324;-77
2023/01/23 12:07:59;;;;;;;11.40;9.50;;;6.30;99.90;;;;;;5069401;27;94437;-78
2023/01/23 12:10:41;;;;;;;13.27;9.35;;;6.20;99.90;;;;;;5068198;27;95882;-78
2023/01/23 12:13:48;;;;;;;11.88;9.55;;;6.20;99.90;;;;;;5036720;28;92441;-77
2023/01/23 12:16:33;;;;;;;13.27;9.60;;;6.10;99.90;;;;;;5030360;28;92526;-77
2023/01/23 12:19:18;;;;;;;13.43;9.35;;;6.10;99.90;;;;;;5069060;27;92865;-77
2023/01/23 12:21:56;;;;;;;12.20;9.45;;;6.10;99.90;;;;;;5036657;28;92358;-78
2023/01/23 12:24:50;;;;;;;12.80;9.07;;;6.20;99.90;;;;;;5035968;27;92417;-77
2023/01/23 12:27:56;;;;;;;13.88;9.43;;;6.20;99.90;;;;;;5036476;28;92516;-77
2023/01/23 12:30:33;;;;;;;11.90;9.65;;;6.10;99.90;;;;;;5027662;28;93444;-78
2023/01/23 12:33:28;;;;;;;13.95;10.25;;;6.00;99.90;;;;;;5051954;27;92564;-77
2023/01/23 12:36:07;;;;;;;14.15;9.27;;;6.10;99.90;;;;;;5034169;28;92568;-77
2023/01/23 12:38:52;;;;;;;13.40;10.05;;;6.10;99.90;;;;;;5067406;27;95986;-77
2023/01/23 12:41:25;;;;;;;10.93;8.85;;;6.20;99.90;;;;;;5034651;27;95372;-78
2023/01/23 12:44:04;;;;;;;13.23;8.70;;;6.10;99.90;;;;;;5067617;27;92534;-78
2023/01/23 12:47:23;;;;;;;12.88;8.93;;;6.20;99.90;;;;;;5076868;27;87840;-78
2023/01/23 12:49:55;;;;;;;10.13;8.10;;;6.10;99.90;;;;;;5050722;27;97678;-77
2023/01/23 12:52:32;;;;;;;9.90;8.00;;;6.00;99.90;;;;;;5071063;27;89376;-77
2023/01/23 12:55:14;;;;;;;10.38;7.75;;;6.00;99.90;;;;;;5055739;27;88401;-77
2023/01/23 12:57:50;;;;;;;8.90;6.40;;;6.00;99.90;;;;;;5071128;27;87996;-77
2023/01/23 13:00:44;;;;;;;9.73;7.38;;;5.90;99.90;;;;;;5070822;27;89765;-76
2023/01/23 13:03:26;;;;;;;9.95;6.38;;;5.90;99.90;;;;;;5055502;27;87511;-77
2023/01/23 13:06:17;;;;;;;10.90;7.45;;;6.00;99.90;;;;;;5055361;27;88389;-77
2023/01/23 13:08:49;;;;;;;10.57;7.93;;;5.90;99.90;;;;;;5070672;27;90500;-77
2023/01/23 13:11:39;;;;;;;10.70;7.20;;;5.90;99.90;;;;;;5068987;27;87438;-78
2023/01/23 13:14:43;;;;;;;13.48;7.75;;;5.90;99.90;;;;;;5055494;27;87489;-78
2023/01/23 13:17:34;;;;;;;10.68;8.00;;;5.90;99.90;;;;;;5054629;27;88406;-77
2023/01/23 13:23:24;;;;;;;9.20;6.90;;;6.10;99.90;;;;;;5055215;27;87291;-77
2023/01/23 13:26:10;;;;;;;9.77;7.55;;;6.10;99.90;;;;;;5054988;27;87520;-77
2023/01/23 13:28:44;;;;;;;8.88;6.35;;;6.10;99.90;;;;;;5054920;27;88201;-78
2023/01/23 13:31:24;;;;;;;11.00;7.45;;;6.10;99.90;;;;;;5053725;27;87652;-78
2023/01/23 13:33:53;;;;;;;9.93;6.63;;;6.10;99.90;;;;;;5070477;27;90539;-77